Time;durP1;ratioP1;P1;durP2;ratioP2;P2;SDS_P1;SDS_P2;PMS_P1;PMS_P2;Temp;Humidity;BMP_temperature;BMP_pressure;BME280_temperature;BME280_humidity;BME280_pressure;Samples;Min_cycle;Max_cycle;Signal;HPM_P1;HPM_P2
2023/06/05 00:02:23;;;;;;;;;;;17.70;45.00;;;13.65;75.78;95480.19;4997943;28;19965;-45
2023/06/05 00:04:48;;;;;;;;;;;17.60;45.10;;;13.62;76.25;95480.75;4995349;28;20283;-45
2023/06/05 00:07:14;;;;;;;;;;;17.60;45.10;;;13.61;76.55;95473.84;4992469;28;19910;-44
2023/06/05 00:09:40;;;;;;;;;;;17.60;45.20;;;13.62;76.58;95478.09;4994243;28;19924;-47
2023/06/05 00:12:07;;;;;;;;;;;17.60;45.40;;;13.54;76.84;95473.38;4998082;28;19913;-45
2023/06/05 00:14:32;;;;;;;;;;;17.50;45.30;;;13.54;76.48;95470.72;4992129;28;19917;-45
2023/06/05 00:16:58;;;;;;;;;;;17.50;45.40;;;13.46;77.13;95471.31;5002948;28;20364;-47
2023/06/05 00:19:24;;;;;;;;;;;17.50;45.50;;;13.40;77.53;95472.47;4992514;28;19917;-46
2023/06/05 00:21:51;;;;;;;;;;;17.40;45.50;;;13.36;77.41;95472.25;4995279;28;20382;-50
2023/06/05 00:24:16;;;;;;;;;;;17.40;45.60;;;13.37;76.44;95465.81;5004641;28;19910;-45
2023/06/05 00:26:42;;;;;;;;;;;17.40;45.70;;;13.33;76.51;95466.66;4993265;28;19916;-44
2023/06/05 00:29:08;;;;;;;;;;;17.30;45.70;;;13.32;76.61;95467.75;5003006;28;19909;-47
2023/06/05 00:31:34;;;;;;;;;;;17.30;45.80;;;13.26;76.80;95464.34;4992258;28;19964;-48
2023/06/05 00:34:00;;;;;;;;;;;17.30;45.90;;;13.26;76.84;95460.88;4998599;28;19920;-46
2023/06/05 00:36:27;;;;;;;;;;;17.20;45.90;;;13.22;76.69;95468.59;5009178;28;19913;-48
2023/06/05 00:38:54;;;;;;;;;;;17.20;46.00;;;13.18;76.62;95459.56;4992331;28;19959;-47
2023/06/05 00:41:19;;;;;;;;;;;17.20;46.10;;;13.14;76.60;95456.66;4992570;28;19920;-48
2023/06/05 00:43:45;;;;;;;;;;;17.10;46.10;;;13.12;76.55;95460.69;4992466;28;19913;-46
2023/06/05 00:46:12;;;;;;;;;;;17.10;46.20;;;13.12;76.53;95466.03;4996281;28;19909;-46
2023/06/05 00:48:39;;;;;;;;;;;17.10;46.30;;;13.07;76.87;95463.44;4992419;28;20380;-48
2023/06/05 00:51:07;;;;;;;;;;;17.10;46.40;;;13.04;76.86;95462.13;4995706;28;20376;-47
2023/06/05 00:53:36;;;;;;;;;;;17.00;46.60;;;12.99;76.74;95462.16;5002901;28;19909;-47
2023/06/05 00:56:02;;;;;;;;;;;17.00;46.70;;;12.95;76.23;95453.13;4995461;28;19910;-48
2023/06/05 00:58:30;;;;;;;;;;;16.90;46.70;;;12.98;75.51;95457.13;5003667;28;20318;-48
2023/06/05 01:00:58;;;;;;;;;;;16.90;46.80;;;13.00;75.27;95463.75;4998255;28;20304;-45
2023/06/05 01:03:29;;;;;;;;;;;16.90;46.90;;;13.02;74.90;95460.81;4995457;28;20284;-48
2023/06/05 01:06:02;;;;;;;;;;;16.90;47.00;;;13.02;74.93;95461.59;5011956;28;19948;-47
2023/06/05 01:08:38;;;;;;;;;;;16.90;47.00;;;12.98;75.18;95465.13;5015002;28;19909;-48
2023/06/05 01:11:36;;;;;;;;;;;16.90;47.00;;;12.93;75.19;95469.44;5013894;28;20383;-46
2023/06/05 01:14:23;;;;;;;;;;;16.90;47.10;;;12.88;75.61;95472.16;5014701;28;20283;-51
2023/06/05 01:16:54;;;;;;;;;;;16.90;47.10;;;12.86;75.33;95466.28;5012183;28;19970;-48
2023/06/05 01:19:28;;;;;;;;;;;16.80;47.10;;;12.84;74.65;95463.09;5014856;28;19909;-49
2023/06/05 01:21:58;;;;;;;;;;;16.80;47.10;;;12.83;74.40;95460.72;5012099;28;20008;-46
2023/06/05 01:24:27;;;;;;;;;;;16.80;47.10;;;12.82;74.29;95464.47;5014885;28;20015;-47
2023/06/05 01:27:07;;;;;;;;;;;16.80;47.10;;;12.80;74.06;95461.28;5014217;28;20415;-47
2023/06/05 01:30:08;;;;;;;;;;;16.80;47.10;;;12.86;73.67;95466.28;5005838;28;19984;-47
2023/06/05 01:33:02;;;;;;;;;;;16.80;47.10;;;12.82;73.51;95459.13;5004314;28;19909;-47
2023/06/05 01:35:33;;;;;;;;;;;16.80;47.70;;;12.83;73.35;95464.19;5012089;28;19913;-46
2023/06/05 01:38:05;;;;;;;;;;;16.70;47.10;;;12.81;73.46;95454.84;5014628;28;19955;-46
2023/06/05 01:40:34;;;;;;;;;;;16.70;47.10;;;12.82;72.92;95449.22;5012343;28;20004;-45
2023/06/05 01:43:03;;;;;;;;;;;16.70;47.10;;;12.79;72.80;95460.47;5014235;28;19966;-50
2023/06/05 01:45:30;;;;;;;;;;;16.70;47.10;;;12.80;72.87;95453.25;5013421;28;19909;-49
2023/06/05 01:47:57;;;;;;;;;;;16.70;47.10;;;12.80;72.30;95453.25;5009819;28;19936;-47
2023/06/05 01:50:24;;;;;;;;;;;16.70;47.10;;;12.80;71.90;95446.03;5014244;28;19909;-49
2023/06/05 01:52:52;;;;;;;;;;;16.70;47.10;;;12.78;72.16;95452.72;5012970;28;19909;-49
2023/06/05 01:55:23;;;;;;;;;;;16.70;47.10;;;12.77;72.21;95453.81;5005205;28;19975;-48
2023/06/05 01:57:50;;;;;;;;;;;16.70;47.10;;;12.76;72.11;95455.69;5009769;28;20160;-52
2023/06/05 02:00:17;;;;;;;;;;;16.70;47.10;;;12.74;71.88;95452.50;5003545;28;20000;-47
2023/06/05 02:02:47;;;;;;;;;;;16.70;47.10;;;12.71;71.76;95445.84;4994469;28;19921;-46
2023/06/05 02:05:16;;;;;;;;;;;16.70;47.10;;;12.69;72.21;95452.53;5001722;28;20291;-48
2023/06/05 02:07:53;;;;;;;;;;;16.60;47.00;;;12.65;72.11;95456.84;4996677;28;19917;-46
2023/06/05 02:10:20;;;;;;;;;;;16.60;47.00;;;12.59;73.62;95453.41;5000067;28;19913;-47
2023/06/05 02:12:47;;;;;;;;;;;16.60;47.00;;;12.49;73.97;95456.97;4994531;28;19909;-49
2023/06/05 02:15:14;;;;;;;;;;;16.50;47.00;;;12.42;73.83;95461.06;4993938;28;20418;-49
2023/06/05 02:17:52;;;;;;;;;;;16.50;47.00;;;12.30;74.31;95457.94;5002926;28;19924;-47
2023/06/05 02:20:24;;;;;;;;;;;16.40;47.00;;;12.17;74.14;95454.03;4994142;28;19955;-45
2023/06/05 02:22:51;;;;;;;;;;;16.30;47.00;;;12.04;74.39;95455.44;4993770;28;19909;-47
2023/06/05 02:25:18;;;;;;;;;;;16.30;47.10;;;11.91;75.92;95450.69;4993805;28;19917;-49
2023/06/05 02:27:44;;;;;;;;;;;16.20;47.10;;;11.79;77.20;95456.34;5000701;28;20291;-48
2023/06/05 02:30:11;;;;;;;;;;;16.10;47.20;;;11.70;77.57;95458.00;4993773;28;19916;-47
2023/06/05 02:32:41;;;;;;;;;;;16.00;47.30;;;11.60;79.36;95455.38;4993878;28;19920;-50
2023/06/05 02:35:08;;;;;;;;;;;15.90;47.40;;;11.53;80.74;95452.97;4995513;28;19914;-47
2023/06/05 02:37:36;;;;;;;;;;;15.80;47.40;;;11.42;81.37;95454.09;4993623;28;19917;-46
2023/06/05 02:40:05;;;;;;;;;;;15.70;47.60;;;11.29;82.35;95453.63;4993269;28;19909;-48
2023/06/05 02:42:31;;;;;;;;;;;15.70;47.70;;;11.25;82.36;95455.22;4993620;28;20280;-46
2023/06/05 02:44:56;;;;;;;;;;;15.60;47.80;;;11.14;82.78;95456.31;4993549;28;19909;-49
2023/06/05 02:47:22;;;;;;;;;;;15.50;47.90;;;11.04;82.98;95453.69;4992874;28;20396;-48
2023/06/05 02:49:48;;;;;;;;;;;15.40;48.00;;;11.01;82.96;95454.22;4993504;28;19909;-47
2023/06/05 02:52:13;;;;;;;;;;;15.30;48.10;;;10.92;83.60;95461.97;4999039;28;19909;-46
2023/06/05 02:54:39;;;;;;;;;;;15.20;48.20;;;10.86;84.02;95453.16;4995883;28;19995;-47
2023/06/05 02:57:06;;;;;;;;;;;15.10;48.30;;;10.78;84.58;95460.91;4993229;28;19909;-47
2023/06/05 02:59:32;;;;;;;;;;;15.10;48.40;;;10.69;85.67;95468.66;5004992;28;20288;-47
2023/06/05 03:01:58;;;;;;;;;;;15.00;48.50;;;10.59;86.51;95465.97;4993192;28;19910;-47
2023/06/05 03:04:24;;;;;;;;;;;14.90;48.60;;;10.51;87.10;95469.19;4996402;28;19964;-46
2023/06/05 03:06:53;;;;;;;;;;;14.80;48.80;;;10.43;88.30;95462.53;5000476;28;19915;-48
2023/06/05 03:09:19;;;;;;;;;;;14.70;49.40;;;10.44;88.21;95466.81;4992957;28;19909;-45
2023/06/05 03:11:44;;;;;;;;;;;14.70;49.00;;;10.41;88.42;95470.00;5000043;28;19996;-49
2023/06/05 03:14:11;;;;;;;;;;;14.60;49.10;;;10.35;87.93;95471.84;4993321;28;20093;-45
2023/06/05 03:16:43;;;;;;;;;;;14.60;49.20;;;10.29;88.76;95475.56;5027244;23;19927;-54
2023/06/05 03:19:10;;;;;;;;;;;14.50;49.30;;;10.21;89.39;95468.06;5022510;28;19917;-55
2023/06/05 03:21:41;;;;;;;;;;;14.50;49.50;;;10.09;90.73;95468.34;5020689;28;20007;-53
2023/06/05 03:24:10;;;;;;;;;;;14.40;49.60;;;10.08;90.45;95472.03;5031337;28;19909;-50
2023/06/05 03:26:36;;;;;;;;;;;14.40;49.70;;;10.02;90.66;95465.09;5029162;28;19908;-52
2023/06/05 03:29:02;;;;;;;;;;;14.30;49.80;;;9.96;91.44;95468.81;5026836;28;19931;-52
2023/06/05 03:31:28;;;;;;;;;;;14.20;49.90;;;9.89;91.91;95473.59;5031255;28;19908;-54
2023/06/05 03:33:54;;;;;;;;;;;14.20;50.00;;;9.85;93.02;95475.19;5030114;28;20407;-50
2023/06/05 03:36:19;;;;;;;;;;;14.10;50.10;;;9.80;93.23;95475.97;5031100;28;19909;-52
2023/06/05 03:38:45;;;;;;;;;;;14.10;50.20;;;9.75;94.05;95477.84;5030662;28;19912;-53
2023/06/05 03:41:12;;;;;;;;;;;14.00;50.30;;;9.70;94.00;95475.94;5030205;28;20347;-56
2023/06/05 03:43:37;;;;;;;;;;;14.00;50.50;;;9.65;93.91;95479.41;5031188;28;19909;-53
2023/06/05 03:46:04;;;;;;;;;;;14.00;50.60;;;9.58;95.54;95478.03;5029984;28;19919;-57
2023/06/05 03:48:30;;;;;;;;;;;13.90;51.20;;;9.53;96.19;95481.47;5030855;28;19999;-57
2023/06/05 03:50:57;;;;;;;;;;;13.90;50.70;;;9.55;95.81;95486.53;5028474;28;21500;-51
2023/06/05 03:53:23;;;;;;;;;;;13.90;50.80;;;9.50;96.12;95482.78;5030720;28;19913;-54
2023/06/05 03:55:52;;;;;;;;;;;13.90;50.90;;;9.47;96.43;95488.63;5031653;28;19967;-53
2023/06/05 03:58:19;;;;;;;;;;;13.80;50.90;;;9.47;97.07;95485.97;5031045;28;19940;-55
2023/06/05 04:00:50;;;;;;;;;;;13.80;51.70;;;9.45;97.25;95487.28;5031979;28;20050;-53
2023/06/05 04:03:18;;;;;;;;;;;13.80;51.90;;;9.43;98.25;95492.88;5032046;28;19954;-55
2023/06/05 04:05:44;;;;;;;;;;;13.80;51.20;;;9.47;98.52;95485.16;5030632;28;20039;-54
2023/06/05 04:08:11;;;;;;;;;;;13.80;51.30;;;9.45;98.56;95490.72;5031771;28;19999;-57
2023/06/05 04:10:38;;;;;;;;;;;13.80;51.40;;;9.45;98.39;95490.72;5030526;28;19915;-54
2023/06/05 04:13:04;;;;;;;;;;;13.80;51.50;;;9.52;97.94;95495.00;5032054;28;19977;-57
2023/06/05 04:15:30;;;;;;;;;;;13.80;51.50;;;9.64;97.66;95496.41;5031338;28;19912;-51
2023/06/05 04:17:56;;;;;;;;;;;13.90;51.60;;;9.78;96.94;95491.41;5031482;28;19916;-55
2023/06/05 04:20:22;;;;;;;;;;;13.90;52.30;;;9.86;96.02;95490.88;5031759;28;19935;-55
2023/06/05 04:22:50;;;;;;;;;;;14.00;51.70;;;9.93;95.19;95490.63;5019770;28;20367;-56
2023/06/05 04:25:16;;;;;;;;;;;14.00;51.70;;;10.08;95.22;95495.19;5032889;28;19936;-57
2023/06/05 04:27:44;;;;;;;;;;;14.10;51.80;;;10.29;94.70;95498.72;5034431;28;19948;-55
2023/06/05 04:30:13;;;;;;;;;;;14.20;52.40;;;10.51;93.29;95511.81;5035511;28;19963;-56
2023/06/05 04:32:41;;;;;;;;;;;14.40;51.90;;;10.74;92.74;95507.81;5035397;28;20299;-56
2023/06/05 04:35:11;;;;;;;;;;;14.50;51.90;;;10.96;91.31;95500.31;5034097;28;19919;-56
2023/06/05 04:37:39;;;;;;;;;;;14.70;51.90;;;11.17;89.84;95501.09;5035397;28;19913;-54
2023/06/05 04:40:09;;;;;;;;;;;14.90;51.80;;;11.38;88.32;95506.41;5017420;28;19970;-51
2023/06/05 04:42:38;;;;;;;;;;;15.10;51.80;;;11.57;87.60;95510.88;5029180;28;20006;-57
2023/06/05 04:45:10;;;;;;;;;;;15.30;51.70;;;11.77;86.99;95501.19;5035396;28;19908;-54
2023/06/05 04:47:36;;;;;;;;;;;15.50;51.60;;;11.92;85.83;95495.81;5034341;28;20449;-52
2023/06/05 04:50:05;;;;;;;;;;;15.80;51.50;;;12.12;84.33;95505.56;5035151;28;19915;-55
2023/06/05 04:52:32;;;;;;;;;;;15.90;51.40;;;12.36;83.16;95502.22;5034177;28;19908;-52
2023/06/05 04:55:02;;;;;;;;;;;16.20;51.30;;;12.62;82.82;95500.16;5035409;28;19920;-53
2023/06/05 04:57:29;;;;;;;;;;;16.40;51.20;;;12.85;81.85;95501.31;5035060;28;19915;-55
2023/06/05 04:59:58;;;;;;;;;;;16.60;51.00;;;13.12;80.62;95508.81;5034711;28;20337;-54
2023/06/05 05:02:24;;;;;;;;;;;16.90;50.90;;;13.39;79.32;95505.66;5035051;28;20289;-51
2023/06/05 05:04:51;;;;;;;;;;;17.20;50.80;;;13.68;75.15;95502.13;5044313;28;19916;-55
2023/06/05 05:07:16;;;;;;;;;;;17.50;50.60;;;13.96;73.06;95511.94;5035086;28;19908;-50
2023/06/05 05:09:46;;;;;;;;;;;17.70;50.40;;;14.21;72.58;95507.34;5033876;28;19999;-51
2023/06/05 05:12:12;;;;;;;;;;;18.00;50.20;;;14.49;70.70;95509.09;5034756;28;20007;-55
2023/06/05 05:14:40;;;;;;;;;;;18.30;49.90;;;14.71;68.32;95507.72;5034613;28;20004;-54
2023/06/05 05:17:05;;;;;;;;;;;18.60;49.60;;;14.91;67.32;95512.75;5033200;28;19916;-54
2023/06/05 05:19:31;;;;;;;;;;;18.90;49.40;;;15.13;63.47;95503.25;5034613;28;19916;-55
2023/06/05 05:21:58;;;;;;;;;;;19.10;49.00;;;15.39;62.85;95499.06;5033408;28;19909;-54
2023/06/05 05:24:24;;;;;;;;;;;19.40;48.70;;;15.64;61.51;95505.03;5049860;28;19916;-51
2023/06/05 05:26:52;;;;;;;;;;;19.70;48.40;;;15.88;60.72;95497.56;5034304;28;20267;-53
2023/06/05 05:29:18;;;;;;;;;;;19.90;48.10;;;16.13;59.66;95504.31;5033550;28;19908;-55
2023/06/05 05:31:44;;;;;;;;;;;20.20;47.80;;;16.35;60.00;95510.84;5034415;28;20071;-54
2023/06/05 05:34:11;;;;;;;;;;;20.40;47.40;;;16.46;59.41;95500.66;5033385;28;19913;-57
2023/06/05 05:36:36;;;;;;;;;;;20.60;47.20;;;16.37;59.58;95506.75;5034018;28;19908;-56
2023/06/05 05:39:04;;;;;;;;;;;20.70;47.00;;;16.31;59.77;95517.94;5034556;28;20440;-55
2023/06/05 05:41:30;;;;;;;;;;;20.70;46.80;;;16.22;61.24;95514.34;5033075;28;19908;-53
2023/06/05 05:43:56;;;;;;;;;;;20.70;46.60;;;16.14;61.58;95515.88;5034326;28;20337;-54
2023/06/05 05:46:21;;;;;;;;;;;20.70;46.40;;;16.14;62.29;95513.97;5033619;28;19913;-53
2023/06/05 05:48:47;;;;;;;;;;;20.80;46.40;;;16.27;62.01;95514.25;5034302;28;19916;-56
2023/06/05 05:51:13;;;;;;;;;;;20.90;46.10;;;16.45;61.09;95517.88;5034039;28;20283;-55
2023/06/05 05:53:39;;;;;;;;;;;21.20;46.10;;;16.58;59.96;95509.00;5031112;28;19912;-55
2023/06/05 05:56:05;;;;;;;;;;;21.40;45.90;;;16.76;58.83;95512.63;5033812;28;20268;-51
2023/06/05 05:58:34;;;;;;;;;;;21.60;45.60;;;16.88;58.97;95513.66;5032833;28;19909;-56
2023/06/05 06:01:00;;;;;;;;;;;21.70;45.40;;;16.95;58.49;95524.00;5034068;28;20359;-55
2023/06/05 06:03:26;;;;;;;;;;;21.80;45.20;;;17.10;58.12;95512.84;5033841;28;20000;-58
2023/06/05 06:05:53;;;;;;;;;;;22.00;45.00;;;17.32;57.53;95513.94;5032734;28;19908;-53
2023/06/05 06:08:20;;;;;;;;;;;22.30;44.80;;;17.65;56.01;95516.31;5033753;28;19913;-54
2023/06/05 06:10:46;;;;;;;;;;;22.70;44.50;;;17.98;55.59;95514.06;5032583;28;20390;-55
2023/06/05 06:13:13;;;;;;;;;;;23.00;44.20;;;18.36;53.72;95508.13;5033727;28;20362;-52
2023/06/05 06:15:40;;;;;;;;;;;23.40;43.90;;;18.72;52.90;95514.03;5031528;28;27922;-56
2023/06/05 06:18:07;;;;;;;;;;;23.70;43.60;;;19.06;51.94;95512.44;5033290;28;19989;-55
2023/06/05 06:20:35;;;;;;;;;;;24.10;43.20;;;19.31;50.47;95513.50;5033657;28;19952;-53
2023/06/05 06:23:02;;;;;;;;;;;24.40;42.80;;;19.58;49.50;95514.97;5032140;28;19909;-53
2023/06/05 06:25:31;;;;;;;;;;;24.80;42.40;;;19.85;48.73;95516.50;5033430;28;19952;-56
2023/06/05 06:27:58;;;;;;;;;;;25.20;42.00;;;20.08;48.27;95513.53;5032228;28;19924;-58
2023/06/05 06:30:25;;;;;;;;;;;25.40;41.70;;;20.36;47.31;95508.44;5033571;28;19908;-54
2023/06/05 06:32:50;;;;;;;;;;;25.70;41.40;;;20.63;47.20;95514.50;5033246;28;19909;-57
2023/06/05 06:35:16;;;;;;;;;;;26.00;41.10;;;20.90;45.92;95513.94;5032034;28;19936;-53
2023/06/05 06:37:43;;;;;;;;;;;26.30;40.70;;;21.15;44.26;95517.53;5032828;28;19908;-56
2023/06/05 06:40:09;;;;;;;;;;;26.60;40.30;;;21.23;44.05;95513.94;5032407;28;19913;-51
2023/06/05 06:42:36;;;;;;;;;;;26.80;39.80;;;21.41;43.01;95511.09;5032937;28;19908;-54
2023/06/05 06:45:04;;;;;;;;;;;26.90;40.00;;;21.52;43.53;95514.94;5033162;28;20004;-56
2023/06/05 06:47:30;;;;;;;;;;;27.10;39.20;;;21.67;42.89;95517.00;5031069;28;19916;-54
2023/06/05 06:49:56;;;;;;;;;;;27.30;38.90;;;21.77;42.61;95517.69;5032949;28;19962;-53
2023/06/05 06:52:23;;;;;;;;;;;27.40;38.60;;;21.88;41.92;95525.06;5031949;28;19913;-54
2023/06/05 06:54:49;;;;;;;;;;;27.50;38.20;;;22.02;42.07;95522.00;5032505;28;19920;-56
2023/06/05 06:57:15;;;;;;;;;;;27.60;38.00;;;22.10;41.60;95526.53;5032844;28;20387;-56
2023/06/05 06:59:41;;;;;;;;;;;27.80;37.80;;;22.10;40.65;95523.03;5031538;28;20012;-55
2023/06/05 07:02:19;;;;;;;;;;;27.80;37.50;;;22.29;41.25;95525.19;5032935;28;19995;-56
2023/06/05 07:04:47;;;;;;;;;;;28.00;37.30;;;22.42;40.23;95523.25;5031274;28;19931;-56
2023/06/05 07:07:17;;;;;;;;;;;28.10;37.00;;;22.45;41.17;95523.34;5032865;28;19909;-56
2023/06/05 07:09:49;;;;;;;;;;;28.20;36.80;;;22.58;40.18;95515.97;5031432;28;20290;-56
2023/06/05 07:12:16;;;;;;;;;;;28.30;36.70;;;22.66;40.77;95528.63;5032661;28;20385;-53
2023/06/05 07:14:42;;;;;;;;;;;28.50;36.50;;;22.68;40.28;95526.34;5032424;28;19912;-56
2023/06/05 07:17:08;;;;;;;;;;;28.60;36.30;;;22.66;40.01;95525.91;5031011;28;19916;-55
2023/06/05 07:19:38;;;;;;;;;;;28.70;36.10;;;22.80;40.31;95526.31;5032366;28;19962;-56
2023/06/05 07:22:05;;;;;;;;;;;28.80;35.90;;;22.72;41.04;95521.03;5031191;28;19915;-55
2023/06/05 07:24:32;;;;;;;;;;;28.90;35.90;;;22.82;40.16;95523.28;5032419;28;19916;-56
2023/06/05 07:27:01;;;;;;;;;;;29.00;35.60;;;22.93;39.24;95524.34;5032279;28;20003;-55
2023/06/05 07:29:27;;;;;;;;;;;29.10;35.50;;;23.25;39.67;95522.56;5030886;28;19940;-56
2023/06/05 07:31:56;;;;;;;;;;;29.20;35.50;;;23.26;39.34;95526.06;5032180;28;20294;-55
2023/06/05 07:34:24;;;;;;;;;;;29.10;35.30;;;23.17;39.81;95518.06;5030217;28;19913;-55
2023/06/05 07:36:51;;;;;;;;;;;29.00;35.20;;;23.06;40.12;95522.41;5032298;28;19909;-56
2023/06/05 07:39:22;;;;;;;;;;;28.80;35.00;;;22.99;40.67;95524.94;5030875;28;19913;-56
2023/06/05 07:41:48;;;;;;;;;;;28.60;34.90;;;23.12;39.91;95525.69;5030679;28;19948;-56
2023/06/05 07:44:21;;;;;;;;;;;28.60;34.90;;;23.08;39.65;95523.66;5032627;28;19909;-53
2023/06/05 07:46:48;;;;;;;;;;;28.80;34.70;;;23.23;40.04;95515.91;5031027;28;19951;-54
2023/06/05 07:49:17;;;;;;;;;;;29.10;34.60;;;23.65;40.07;95524.38;5032321;28;19931;-51
2023/06/05 07:51:47;;;;;;;;;;;29.30;34.60;;;23.81;39.34;95523.63;5046009;28;19912;-56
2023/06/05 07:54:18;;;;;;;;;;;29.40;34.50;;;23.94;38.61;95520.47;5032034;28;19913;-54
2023/06/05 07:56:48;;;;;;;;;;;29.50;34.30;;;23.83;38.70;95524.06;5031946;28;19908;-55
2023/06/05 07:59:16;;;;;;;;;;;29.50;34.20;;;23.72;39.55;95521.06;5033801;28;20386;-54
2023/06/05 08:01:43;;;;;;;;;;;29.40;34.00;;;23.66;39.18;95525.97;5036238;28;19915;-56
2023/06/05 08:04:12;;;;;;;;;;;29.40;34.00;;;23.53;39.32;95530.69;5030333;28;19913;-55
2023/06/05 08:06:37;;;;;;;;;;;29.30;34.00;;;23.45;40.21;95528.13;5034445;28;20446;-56
2023/06/05 08:09:05;;;;;;;;;;;29.20;33.80;;;23.42;40.13;95524.19;5036593;28;19955;-52
2023/06/05 08:11:31;;;;;;;;;;;29.10;33.70;;;23.33;40.38;95518.09;5050156;28;19909;-56
2023/06/05 08:13:57;;;;;;;;;;;29.00;33.80;;;23.56;40.31;95516.38;5036031;28;19966;-56
2023/06/05 08:16:23;;;;;;;;;;;29.10;33.70;;;23.96;39.23;95526.34;5034516;28;20379;-56
2023/06/05 08:18:48;;;;;;;;;;;29.50;33.70;;;23.69;39.44;95516.31;5036170;28;19913;-56
2023/06/05 08:21:15;;;;;;;;;;;29.60;33.60;;;24.08;38.96;95513.78;5035973;28;19931;-54
2023/06/05 08:23:41;;;;;;;;;;;29.80;33.40;;;24.51;37.15;95510.16;5034500;28;19908;-52
2023/06/05 08:26:10;;;;;;;;;;;30.20;33.30;;;24.55;38.93;95507.50;5035491;28;19913;-54
2023/06/05 08:28:41;;;;;;;;;;;30.60;33.10;;;24.84;37.51;95508.88;5034489;28;19916;-56
2023/06/05 08:31:09;;;;;;;;;;;31.00;32.80;;;25.31;37.70;95499.72;5035629;28;19974;-56
2023/06/05 08:33:35;;;;;;;;;;;31.40;32.50;;;25.47;36.42;95500.38;5035468;28;20271;-56
2023/06/05 08:36:02;;;;;;;;;;;31.80;32.40;;;25.81;36.28;95500.63;5034752;28;19908;-57
2023/06/05 08:38:33;;;;;;;;;;;32.20;32.10;;;25.93;35.66;95496.91;5035365;28;20379;-59
2023/06/05 08:41:10;;;;;;;;;;;32.50;31.80;;;25.75;36.08;95497.38;5034699;28;19915;-53
2023/06/05 08:43:41;;;;;;;;;;;32.70;31.50;;;25.73;35.81;95490.69;5035532;28;20335;-53
2023/06/05 08:46:09;;;;;;;;;;;32.80;31.10;;;26.20;34.75;95494.97;5034066;28;19908;-54
2023/06/05 08:48:50;;;;;;;;;;;33.00;30.90;;;26.64;34.37;95489.81;5035482;28;20314;-49
2023/06/05 08:51:18;;;;;;;;;;;33.20;30.90;;;26.83;32.96;95494.34;5035442;28;19917;-50
2023/06/05 08:54:12;;;;;;;;;;;33.40;30.60;;;26.90;32.79;95488.16;5033827;28;20286;-47
2023/06/05 08:56:40;;;;;;;;;;;33.50;30.20;;;27.36;33.07;95488.72;5049163;28;19909;-48
2023/06/05 08:59:06;;;;;;;;;;;33.60;30.10;;;27.53;32.46;95483.81;5031709;28;19908;-50
2023/06/05 09:01:32;;;;;;;;;;;33.80;30.00;;;27.37;32.97;95484.03;5034890;28;19913;-53
2023/06/05 09:03:58;;;;;;;;;;;33.90;29.80;;;27.34;34.08;95493.78;5033982;28;20872;-54
2023/06/05 09:06:24;;;;;;;;;;;34.00;29.60;;;26.83;34.08;95482.63;5035278;28;20046;-52
2023/06/05 09:08:50;;;;;;;;;;;34.10;29.50;;;26.67;34.88;95478.13;5050895;28;19957;-54
2023/06/05 09:11:27;;;;;;;;;;;34.10;29.20;;;26.79;35.45;95485.28;5033301;28;19912;-52
2023/06/05 09:13:59;;;;;;;;;;;34.00;29.20;;;27.08;34.50;95480.19;5034708;28;20291;-53
2023/06/05 09:16:44;;;;;;;;;;;34.10;29.20;;;27.00;35.61;95482.81;5043449;23;20773;-52
2023/06/05 09:19:11;;;;;;;;;;;34.10;29.20;;;26.81;35.29;95482.19;5024785;28;19921;-50
2023/06/05 09:21:39;;;;;;;;;;;34.10;29.10;;;26.82;35.83;95475.56;4994390;28;19913;-49
2023/06/05 09:24:19;;;;;;;;;;;34.10;29.10;;;27.15;35.12;95478.34;5009017;28;19936;-48
2023/06/05 09:26:58;;;;;;;;;;;34.10;29.00;;;26.79;35.13;95479.03;5001716;28;20422;-52
2023/06/05 09:29:26;;;;;;;;;;;34.00;29.00;;;26.52;35.66;95470.91;5004722;28;19909;-49
2023/06/05 09:31:57;;;;;;;;;;;34.00;28.90;;;26.35;36.46;95468.69;5014759;28;19909;-52
2023/06/05 09:34:25;;;;;;;;;;;34.00;28.80;;;26.41;36.04;95475.41;5007552;28;20300;-48
2023/06/05 09:36:51;;;;;;;;;;;33.90;29.20;;;26.64;36.31;95467.16;5023001;28;19909;-48
2023/06/05 09:39:19;;;;;;;;;;;34.00;28.70;;;26.96;36.04;95471.06;5014709;28;19938;-48
2023/06/05 09:41:51;;;;;;;;;;;33.90;28.70;;;27.03;36.28;95469.56;5013510;28;19909;-48
2023/06/05 09:44:19;;;;;;;;;;;34.00;28.70;;;26.76;36.02;95470.44;5014662;28;20013;-47
2023/06/05 09:46:57;;;;;;;;;;;34.00;28.60;;;26.28;37.25;95469.38;5013115;28;20279;-48
2023/06/05 09:49:32;;;;;;;;;;;34.00;28.60;;;26.66;35.79;95464.84;5014168;28;20485;-49
2023/06/05 09:52:01;;;;;;;;;;;34.00;28.60;;;26.59;36.31;95473.72;5012973;28;19909;-47
2023/06/05 09:54:29;;;;;;;;;;;34.00;28.50;;;26.96;36.32;95464.81;5011251;28;20029;-48
2023/06/05 09:57:04;;;;;;;;;;;34.00;28.50;;;26.93;36.17;95460.09;5014324;28;19909;-50
2023/06/05 09:59:34;;;;;;;;;;;34.00;28.50;;;26.95;36.70;95465.97;5006592;28;19918;-47
2023/06/05 10:02:05;;;;;;;;;;;34.00;28.40;;;26.81;36.06;95460.34;5013672;28;19999;-48
2023/06/05 10:04:41;;;;;;;;;;;34.00;28.30;;;26.60;36.39;95456.16;5013211;28;19916;-47
2023/06/05 10:07:08;;;;;;;;;;;34.10;28.30;;;27.05;36.18;95461.81;5013997;28;20012;-48
2023/06/05 10:09:35;;;;;;;;;;;34.10;28.80;;;26.48;36.98;95459.09;5029148;28;20279;-47
2023/06/05 10:12:03;;;;;;;;;;;34.10;28.30;;;26.37;36.83;95452.72;5028226;28;19909;-47
2023/06/05 10:14:29;;;;;;;;;;;34.20;28.30;;;25.87;37.16;95449.25;5028858;28;19917;-47
2023/06/05 10:16:57;;;;;;;;;;;34.10;28.10;;;25.87;38.32;95446.53;5012385;28;19939;-50
2023/06/05 10:19:24;;;;;;;;;;;34.10;28.00;;;26.64;37.08;95453.50;5028794;28;19909;-48
2023/06/05 10:21:50;;;;;;;;;;;34.10;28.20;;;26.37;37.60;95448.03;5011102;28;20379;-48
2023/06/05 10:24:31;;;;;;;;;;;34.10;28.20;;;25.90;37.81;95459.44;5009598;28;19909;-49
2023/06/05 10:27:18;;;;;;;;;;;34.10;28.20;;;26.43;37.22;95445.78;5013328;28;20307;-48
2023/06/05 10:30:36;;;;;;;;;;;34.20;28.20;;;26.92;35.53;95450.31;5002703;28;20387;-48
2023/06/05 10:33:26;;;;;;;;;;;34.20;28.20;;;26.79;35.77;95452.50;5001528;28;19909;-48
2023/06/05 10:36:16;;;;;;;;;;;34.40;28.00;;;25.90;37.94;95445.81;4991106;28;20587;-48
2023/06/05 10:38:44;;;;;;;;;;;34.50;27.80;;;25.88;37.91;95451.63;5009609;28;20293;-54
2023/06/05 10:41:10;;;;;;;;;;;34.60;27.80;;;26.37;37.35;95441.81;5011742;28;20394;-51
2023/06/05 10:43:49;;;;;;;;;;;34.70;28.30;;;26.33;37.87;95449.16;5013222;28;20075;-48
2023/06/05 10:46:27;;;;;;;;;;;34.80;27.80;;;26.55;35.55;95442.84;5008401;28;20354;-49
2023/06/05 10:49:07;;;;;;;;;;;34.90;27.70;;;26.55;37.49;95453.00;5013202;28;19913;-53
2023/06/05 10:51:46;;;;;;;;;;;34.90;27.70;;;27.18;35.71;95452.19;5013066;28;19913;-49
2023/06/05 10:54:22;;;;;;;;;;;35.00;27.80;;;27.45;35.81;95441.91;5007005;28;19921;-52
2023/06/05 10:56:56;;;;;;;;;;;35.20;27.80;;;27.45;34.93;95441.91;5013030;28;19912;-48
2023/06/05 10:59:24;;;;;;;;;;;35.40;27.60;;;26.65;36.50;95439.47;5010299;28;19909;-50
2023/06/05 11:02:25;;;;;;;;;;;35.50;27.50;;;26.46;36.91;95436.84;5012920;28;19909;-53
2023/06/05 11:04:55;;;;;;;;;;;35.50;27.40;;;26.46;35.67;95439.59;5001767;28;19909;-51
2023/06/05 11:07:26;;;;;;;;;;;35.60;27.40;;;27.32;35.06;95441.41;5011449;28;20284;-51
2023/06/05 11:10:15;;;;;;;;;;;35.60;27.40;;;27.72;33.96;95439.03;5011619;28;20023;-49
2023/06/05 11:12:41;;;;;;;;;;;35.70;27.30;;;27.71;35.57;95434.72;5012357;28;19932;-52
2023/06/05 11:15:13;;;;;;;;;;;35.80;27.30;;;28.24;34.60;95440.59;5012765;28;20359;-50
2023/06/05 11:17:47;;;;;;;;;;;36.00;27.30;;;28.84;33.35;95428.41;5001635;28;19921;-48
2023/06/05 11:20:26;;;;;;;;;;;36.20;27.10;;;28.93;33.59;95434.31;5012613;28;19909;-48
2023/06/05 11:22:57;;;;;;;;;;;36.30;27.10;;;29.07;32.62;95433.59;5010616;28;20003;-49
2023/06/05 11:25:26;;;;;;;;;;;36.50;27.00;;;29.27;32.18;95428.53;5012326;28;19916;-49
2023/06/05 11:28:08;;;;;;;;;;;36.70;26.90;;;28.81;32.16;95429.94;5009492;28;19962;-51